sensor_id;sensor_type;location;lat;lon;timestamp;P1;P2;P0
42510;PMS7003;28141;51.120;17.114;2023-04-24T00:00:51;13;6;4
42510;PMS7003;28141;51.120;17.114;2023-04-24T00:04:06;12;5;4
42510;PMS7003;28141;51.120;17.114;2023-04-24T00:07:23;13;6;5
42510;PMS7003;28141;51.120;17.114;2023-04-24T00:10:37;13;6;5
42510;PMS7003;28141;51.120;17.114;2023-04-24T00:14:18;13;7;4
42510;PMS7003;28141;51.120;17.114;2023-04-24T00:17:32;13;7;4
42510;PMS7003;28141;51.120;17.114;2023-04-24T00:20:46;15;7;4
42510;PMS7003;28141;51.120;17.114;2023-04-24T00:24:00;13;6;4
42510;PMS7003;28141;51.120;17.114;2023-04-24T00:27:42;14;5;4
42510;PMS7003;28141;51.120;17.114;2023-04-24T00:30:57;13;6;5
42510;PMS7003;28141;51.120;17.114;2023-04-24T00:34:11;13;7;4
42510;PMS7003;28141;51.120;17.114;2023-04-24T00:37:25;15;8;5
42510;PMS7003;28141;51.120;17.114;2023-04-24T00:41:06;12;5;4
42510;PMS7003;28141;51.120;17.114;2023-04-24T00:44:20;13;6;4
42510;PMS7003;28141;51.120;17.114;2023-04-24T00:47:34;14;7;5
42510;PMS7003;28141;51.120;17.114;2023-04-24T00:50:49;12;5;4
42510;PMS7003;28141;51.120;17.114;2023-04-24T00:54:29;15;6;4
42510;PMS7003;28141;51.120;17.114;2023-04-24T00:57:44;14;8;6
42510;PMS7003;28141;51.120;17.114;2023-04-24T01:00:59;13;6;5
42510;PMS7003;28141;51.120;17.114;2023-04-24T01:04:15;14;7;5
42510;PMS7003;28141;51.120;17.114;2023-04-24T01:07:57;15;8;5
42510;PMS7003;28141;51.120;17.114;2023-04-24T01:11:13;14;6;4
42510;PMS7003;28141;51.120;17.114;2023-04-24T01:14:28;13;6;5
42510;PMS7003;28141;51.120;17.114;2023-04-24T01:17:43;12;5;4
42510;PMS7003;28141;51.120;17.114;2023-04-24T01:21:26;15;7;6
42510;PMS7003;28141;51.120;17.114;2023-04-24T01:24:42;13;6;5
42510;PMS7003;28141;51.120;17.114;2023-04-24T01:27:57;13;6;4
42510;PMS7003;28141;51.120;17.114;2023-04-24T01:31:12;13;6;4
42510;PMS7003;28141;51.120;17.114;2023-04-24T01:34:53;16;8;5
42510;PMS7003;28141;51.120;17.114;2023-04-24T01:38:08;15;9;6
42510;PMS7003;28141;51.120;17.114;2023-04-24T01:41:22;13;7;5
42510;PMS7003;28141;51.120;17.114;2023-04-24T01:44:37;15;8;5
42510;PMS7003;28141;51.120;17.114;2023-04-24T01:48:17;13;6;5
42510;PMS7003;28141;51.120;17.114;2023-04-24T01:51:31;14;7;5
42510;PMS7003;28141;51.120;17.114;2023-04-24T01:54:45;14;7;4
42510;PMS7003;28141;51.120;17.114;2023-04-24T01:57:59;15;7;4
42510;PMS7003;28141;51.120;17.114;2023-04-24T02:01:41;13;5;4
42510;PMS7003;28141;51.120;17.114;2023-04-24T02:04:55;15;6;4
42510;PMS7003;28141;51.120;17.114;2023-04-24T02:08:10;15;8;5
42510;PMS7003;28141;51.120;17.114;2023-04-24T02:11:24;15;8;5
42510;PMS7003;28141;51.120;17.114;2023-04-24T02:15:05;15;8;5
42510;PMS7003;28141;51.120;17.114;2023-04-24T02:18:19;17;8;6
42510;PMS7003;28141;51.120;17.114;2023-04-24T02:21:35;17;9;5
42510;PMS7003;28141;51.120;17.114;2023-04-24T02:24:49;13;6;5
42510;PMS7003;28141;51.120;17.114;2023-04-24T02:28:30;13;6;5
42510;PMS7003;28141;51.120;17.114;2023-04-24T02:31:43;13;6;4
42510;PMS7003;28141;51.120;17.114;2023-04-24T02:34:57;13;6;5
42510;PMS7003;28141;51.120;17.114;2023-04-24T02:38:12;12;6;4
42510;PMS7003;28141;51.120;17.114;2023-04-24T02:41:52;15;7;5
42510;PMS7003;28141;51.120;17.114;2023-04-24T02:45:07;14;7;4
42510;PMS7003;28141;51.120;17.114;2023-04-24T02:48:21;12;5;4
42510;PMS7003;28141;51.120;17.114;2023-04-24T02:51:36;15;9;6
42510;PMS7003;28141;51.120;17.114;2023-04-24T02:55:20;14;7;6
42510;PMS7003;28141;51.120;17.114;2023-04-24T02:58:34;14;8;5
42510;PMS7003;28141;51.120;17.114;2023-04-24T03:01:48;13;6;4
42510;PMS7003;28141;51.120;17.114;2023-04-24T03:05:02;14;7;5
42510;PMS7003;28141;51.120;17.114;2023-04-24T03:08:43;14;7;4
42510;PMS7003;28141;51.120;17.114;2023-04-24T03:11:58;15;7;5
42510;PMS7003;28141;51.120;17.114;2023-04-24T03:15:12;13;6;4
42510;PMS7003;28141;51.120;17.114;2023-04-24T03:18:26;14;7;5
42510;PMS7003;28141;51.120;17.114;2023-04-24T03:22:06;15;7;5
42510;PMS7003;28141;51.120;17.114;2023-04-24T03:25:22;14;8;5
42510;PMS7003;28141;51.120;17.114;2023-04-24T03:28:35;13;6;4
42510;PMS7003;28141;51.120;17.114;2023-04-24T03:31:49;13;6;5
42510;PMS7003;28141;51.120;17.114;2023-04-24T03:35:29;15;7;5
42510;PMS7003;28141;51.120;17.114;2023-04-24T03:38:43;14;8;5
42510;PMS7003;28141;51.120;17.114;2023-04-24T03:41:57;14;7;5
42510;PMS7003;28141;51.120;17.114;2023-04-24T03:45:11;15;8;5
42510;PMS7003;28141;51.120;17.114;2023-04-24T03:48:51;13;6;4
42510;PMS7003;28141;51.120;17.114;2023-04-24T03:52:05;15;8;5
42510;PMS7003;28141;51.120;17.114;2023-04-24T03:55:19;14;7;5
42510;PMS7003;28141;51.120;17.114;2023-04-24T03:58:33;17;6;4
42510;PMS7003;28141;51.120;17.114;2023-04-24T04:02:15;15;8;6
42510;PMS7003;28141;51.120;17.114;2023-04-24T04:05:29;16;8;5
42510;PMS7003;28141;51.120;17.114;2023-04-24T04:08:43;15;8;5
42510;PMS7003;28141;51.120;17.114;2023-04-24T04:11:57;15;9;5
42510;PMS7003;28141;51.120;17.114;2023-04-24T04:15:37;18;8;6
42510;PMS7003;28141;51.120;17.114;2023-04-24T04:18:51;16;8;6
42510;PMS7003;28141;51.120;17.114;2023-04-24T04:22:05;16;10;7
42510;PMS7003;28141;51.120;17.114;2023-04-24T04:25:21;16;9;6
42510;PMS7003;28141;51.120;17.114;2023-04-24T04:29:02;18;9;6
42510;PMS7003;28141;51.120;17.114;2023-04-24T04:32:16;16;8;6
42510;PMS7003;28141;51.120;17.114;2023-04-24T04:35:30;17;11;7
42510;PMS7003;28141;51.120;17.114;2023-04-24T04:38:44;18;11;8
42510;PMS7003;28141;51.120;17.114;2023-04-24T04:42:25;17;10;7
42510;PMS7003;28141;51.120;17.114;2023-04-24T04:45:41;19;10;7
42510;PMS7003;28141;51.120;17.114;2023-04-24T04:48:59;19;11;7
42510;PMS7003;28141;51.120;17.114;2023-04-24T04:52:16;17;10;7
42510;PMS7003;28141;51.120;17.114;2023-04-24T04:55:57;19;10;7
42510;PMS7003;28141;51.120;17.114;2023-04-24T04:59:12;18;11;8
42510;PMS7003;28141;51.120;17.114;2023-04-24T05:02:26;20;12;8
42510;PMS7003;28141;51.120;17.114;2023-04-24T05:05:40;18;11;8
42510;PMS7003;28141;51.120;17.114;2023-04-24T05:09:20;19;11;8
42510;PMS7003;28141;51.120;17.114;2023-04-24T05:12:34;19;11;8
42510;PMS7003;28141;51.120;17.114;2023-04-24T05:15:48;18;11;7
42510;PMS7003;28141;51.120;17.114;2023-04-24T05:19:02;18;11;8
42510;PMS7003;28141;51.120;17.114;2023-04-24T05:22:42;19;12;7
42510;PMS7003;28141;51.120;17.114;2023-04-24T05:25:56;16;9;7
42510;PMS7003;28141;51.120;17.114;2023-04-24T05:29:10;21;12;8
42510;PMS7003;28141;51.120;17.114;2023-04-24T05:32:25;19;10;7
42510;PMS7003;28141;51.120;17.114;2023-04-24T05:36:06;19;11;8
42510;PMS7003;28141;51.120;17.114;2023-04-24T05:39:20;19;10;7
42510;PMS7003;28141;51.120;17.114;2023-04-24T05:42:34;16;9;7
42510;PMS7003;28141;51.120;17.114;2023-04-24T05:45:48;19;11;7
42510;PMS7003;28141;51.120;17.114;2023-04-24T05:49:30;17;9;6
42510;PMS7003;28141;51.120;17.114;2023-04-24T05:52:44;16;9;7
42510;PMS7003;28141;51.120;17.114;2023-04-24T05:55:58;16;9;7
42510;PMS7003;28141;51.120;17.114;2023-04-24T05:59:12;16;10;7
42510;PMS7003;28141;51.120;17.114;2023-04-24T06:02:52;17;10;6
42510;PMS7003;28141;51.120;17.114;2023-04-24T06:06:08;16;9;7
42510;PMS7003;28141;51.120;17.114;2023-04-24T06:09:22;15;8;6
42510;PMS7003;28141;51.120;17.114;2023-04-24T06:12:36;15;8;6
42510;PMS7003;28141;51.120;17.114;2023-04-24T06:16:19;15;8;7
42510;PMS7003;28141;51.120;17.114;2023-04-24T06:19:33;16;9;7
42510;PMS7003;28141;51.120;17.114;2023-04-24T06:22:47;17;10;7
42510;PMS7003;28141;51.120;17.114;2023-04-24T06:26:02;15;8;6
42510;PMS7003;28141;51.120;17.114;2023-04-24T06:29:42;18;10;7
42510;PMS7003;28141;51.120;17.114;2023-04-24T06:32:56;15;8;6
42510;PMS7003;28141;51.120;17.114;2023-04-24T06:36:10;15;8;6
42510;PMS7003;28141;51.120;17.114;2023-04-24T06:39:24;17;9;6
42510;PMS7003;28141;51.120;17.114;2023-04-24T06:43:04;14;7;6
42510;PMS7003;28141;51.120;17.114;2023-04-24T06:46:19;15;8;6
42510;PMS7003;28141;51.120;17.114;2023-04-24T06:49:37;16;7;5
42510;PMS7003;28141;51.120;17.114;2023-04-24T06:52:51;16;9;6
42510;PMS7003;28141;51.120;17.114;2023-04-24T06:56:06;19;10;6
42510;PMS7003;28141;51.120;17.114;2023-04-24T06:59:20;16;9;5
42510;PMS7003;28141;51.120;17.114;2023-04-24T07:03:00;15;8;6
42510;PMS7003;28141;51.120;17.114;2023-04-24T07:06:15;15;8;5
42510;PMS7003;28141;51.120;17.114;2023-04-24T07:09:34;17;10;7
42510;PMS7003;28141;51.120;17.114;2023-04-24T07:12:55;15;8;5
42510;PMS7003;28141;51.120;17.114;2023-04-24T07:16:12;16;8;6
42510;PMS7003;28141;51.120;17.114;2023-04-24T07:19:26;16;8;5
42510;PMS7003;28141;51.120;17.114;2023-04-24T07:23:06;14;7;5
42510;PMS7003;28141;51.120;17.114;2023-04-24T07:26:20;13;5;4
42510;PMS7003;28141;51.120;17.114;2023-04-24T07:29:34;16;8;6
42510;PMS7003;28141;51.120;17.114;2023-04-24T07:32:48;14;7;5
42510;PMS7003;28141;51.120;17.114;2023-04-24T07:36:29;15;7;5
42510;PMS7003;28141;51.120;17.114;2023-04-24T07:39:43;16;9;6
42510;PMS7003;28141;51.120;17.114;2023-04-24T07:42:57;15;8;5
42510;PMS7003;28141;51.120;17.114;2023-04-24T07:46:11;15;8;6
42510;PMS7003;28141;51.120;17.114;2023-04-24T07:49:51;17;8;5
42510;PMS7003;28141;51.120;17.114;2023-04-24T07:53:05;15;8;6
42510;PMS7003;28141;51.120;17.114;2023-04-24T07:56:18;14;7;5
42510;PMS7003;28141;51.120;17.114;2023-04-24T07:59:33;14;7;5
42510;PMS7003;28141;51.120;17.114;2023-04-24T08:03:14;14;7;4
42510;PMS7003;28141;51.120;17.114;2023-04-24T08:06:31;15;7;5
42510;PMS7003;28141;51.120;17.114;2023-04-24T08:09:45;15;7;5
42510;PMS7003;28141;51.120;17.114;2023-04-24T08:12:58;14;7;5
42510;PMS7003;28141;51.120;17.114;2023-04-24T08:16:39;14;6;5
42510;PMS7003;28141;51.120;17.114;2023-04-24T08:19:53;16;8;5
42510;PMS7003;28141;51.120;17.114;2023-04-24T08:23:14;12;6;4
42510;PMS7003;28141;51.120;17.114;2023-04-24T08:26:28;14;6;5
42510;PMS7003;28141;51.120;17.114;2023-04-24T08:30:09;14;7;5
42510;PMS7003;28141;51.120;17.114;2023-04-24T08:33:23;14;7;5
42510;PMS7003;28141;51.120;17.114;2023-04-24T08:36:37;12;5;4
42510;PMS7003;28141;51.120;17.114;2023-04-24T08:39:54;14;6;4
42510;PMS7003;28141;51.120;17.114;2023-04-24T08:43:34;15;8;4
42510;PMS7003;28141;51.120;17.114;2023-04-24T08:46:49;15;7;5
42510;PMS7003;28141;51.120;17.114;2023-04-24T08:50:05;14;7;5
42510;PMS7003;28141;51.120;17.114;2023-04-24T08:53:21;13;6;4
42510;PMS7003;28141;51.120;17.114;2023-04-24T08:57:01;12;6;5
42510;PMS7003;28141;51.120;17.114;2023-04-24T09:00:22;14;7;4
42510;PMS7003;28141;51.120;17.114;2023-04-24T09:03:36;14;6;5
42510;PMS7003;28141;51.120;17.114;2023-04-24T09:06:53;16;8;5
42510;PMS7003;28141;51.120;17.114;2023-04-24T09:10:38;11;4;3
42510;PMS7003;28141;51.120;17.114;2023-04-24T09:13:53;16;8;5
42510;PMS7003;28141;51.120;17.114;2023-04-24T09:17:08;15;8;5
42510;PMS7003;28141;51.120;17.114;2023-04-24T09:20:22;14;6;4
42510;PMS7003;28141;51.120;17.114;2023-04-24T09:24:05;14;7;4
42510;PMS7003;28141;51.120;17.114;2023-04-24T09:27:23;16;7;5
42510;PMS7003;28141;51.120;17.114;2023-04-24T09:30:39;15;8;6
42510;PMS7003;28141;51.120;17.114;2023-04-24T09:33:57;14;7;6
42510;PMS7003;28141;51.120;17.114;2023-04-24T09:37:43;16;8;6
42510;PMS7003;28141;51.120;17.114;2023-04-24T09:40:59;16;8;6
42510;PMS7003;28141;51.120;17.114;2023-04-24T09:44:20;16;7;5
42510;PMS7003;28141;51.120;17.114;2023-04-24T09:48:04;16;8;6
42510;PMS7003;28141;51.120;17.114;2023-04-24T09:51:23;16;8;6
42510;PMS7003;28141;51.120;17.114;2023-04-24T09:54:46;14;7;5
42510;PMS7003;28141;51.120;17.114;2023-04-24T09:58:34;16;8;5
42510;PMS7003;28141;51.120;17.114;2023-04-24T10:01:49;14;7;5
42510;PMS7003;28141;51.120;17.114;2023-04-24T10:05:05;17;9;5
42510;PMS7003;28141;51.120;17.114;2023-04-24T10:08:19;13;7;5
42510;PMS7003;28141;51.120;17.114;2023-04-24T10:12:00;14;8;5
42510;PMS7003;28141;51.120;17.114;2023-04-24T10:15:16;15;7;5
42510;PMS7003;28141;51.120;17.114;2023-04-24T10:21:22;14;7;6
42510;PMS7003;28141;51.120;17.114;2023-04-24T10:24:36;15;8;6
42510;PMS7003;28141;51.120;17.114;2023-04-24T10:27:52;16;7;5
42510;PMS7003;28141;51.120;17.114;2023-04-24T10:31:12;14;7;5
42510;PMS7003;28141;51.120;17.114;2023-04-24T10:34:54;14;8;5
42510;PMS7003;28141;51.120;17.114;2023-04-24T10:38:11;16;9;6
42510;PMS7003;28141;51.120;17.114;2023-04-24T10:41:27;15;8;5
42510;PMS7003;28141;51.120;17.114;2023-04-24T10:44:44;13;7;5
42510;PMS7003;28141;51.120;17.114;2023-04-24T10:48:28;15;8;5
42510;PMS7003;28141;51.120;17.114;2023-04-24T10:55:06;15;8;5
42510;PMS7003;28141;51.120;17.114;2023-04-24T10:58:24;13;6;4
42510;PMS7003;28141;51.120;17.114;2023-04-24T11:02:09;14;8;5
42510;PMS7003;28141;51.120;17.114;2023-04-24T11:05:49;14;7;5
42510;PMS7003;28141;51.120;17.114;2023-04-24T11:08:48;13;6;4
42510;PMS7003;28141;51.120;17.114;2023-04-24T11:12:34;13;6;4
42510;PMS7003;28141;51.120;17.114;2023-04-24T11:19:18;14;6;5
42510;PMS7003;28141;51.120;17.114;2023-04-24T11:23:03;14;8;5
42510;PMS7003;28141;51.120;17.114;2023-04-24T11:26:21;16;8;6
42510;PMS7003;28141;51.120;17.114;2023-04-24T11:33:38;15;8;6
42510;PMS7003;28141;51.120;17.114;2023-04-24T11:36:52;14;7;5
42510;PMS7003;28141;51.120;17.114;2023-04-24T11:40:08;15;8;6
42510;PMS7003;28141;51.120;17.114;2023-04-24T11:43:23;15;7;6
42510;PMS7003;28141;51.120;17.114;2023-04-24T11:47:06;15;8;5
42510;PMS7003;28141;51.120;17.114;2023-04-24T11:50:22;14;7;5
42510;PMS7003;28141;51.120;17.114;2023-04-24T11:53:40;15;8;5
42510;PMS7003;28141;51.120;17.114;2023-04-24T11:56:55;16;8;6
42510;PMS7003;28141;51.120;17.114;2023-04-24T12:00:35;14;7;5
42510;PMS7003;28141;51.120;17.114;2023-04-24T12:03:58;16;7;5
42510;PMS7003;28141;51.120;17.114;2023-04-24T12:07:13;16;8;6
42510;PMS7003;28141;51.120;17.114;2023-04-24T12:10:28;15;8;6
42510;PMS7003;28141;51.120;17.114;2023-04-24T12:14:10;13;6;5
42510;PMS7003;28141;51.120;17.114;2023-04-24T12:17:26;14;7;5
42510;PMS7003;28141;51.120;17.114;2023-04-24T12:20:41;15;9;6
42510;PMS7003;28141;51.120;17.114;2023-04-24T12:23:55;15;9;6
42510;PMS7003;28141;51.120;17.114;2023-04-24T12:27:35;15;7;5
42510;PMS7003;28141;51.120;17.114;2023-04-24T12:30:49;18;9;6
42510;PMS7003;28141;51.120;17.114;2023-04-24T12:34:04;15;8;6
42510;PMS7003;28141;51.120;17.114;2023-04-24T12:41:21;14;7;5
42510;PMS7003;28141;51.120;17.114;2023-04-24T12:44:35;15;8;6
42510;PMS7003;28141;51.120;17.114;2023-04-24T12:47:50;16;9;6
42510;PMS7003;28141;51.120;17.114;2023-04-24T12:51:30;16;8;5
42510;PMS7003;28141;51.120;17.114;2023-04-24T12:54:44;15;8;6
42510;PMS7003;28141;51.120;17.114;2023-04-24T12:57:58;17;8;6
42510;PMS7003;28141;51.120;17.114;2023-04-24T13:01:12;13;6;5
42510;PMS7003;28141;51.120;17.114;2023-04-24T13:04:52;13;7;6
42510;PMS7003;28141;51.120;17.114;2023-04-24T13:08:07;14;7;5
42510;PMS7003;28141;51.120;17.114;2023-04-24T13:11:21;15;8;5
42510;PMS7003;28141;51.120;17.114;2023-04-24T13:14:36;14;8;6
42510;PMS7003;28141;51.120;17.114;2023-04-24T13:18:17;14;7;5
42510;PMS7003;28141;51.120;17.114;2023-04-24T13:21:31;14;6;4
42510;PMS7003;28141;51.120;17.114;2023-04-24T13:24:45;14;7;5
42510;PMS7003;28141;51.120;17.114;2023-04-24T13:28:02;13;7;5
42510;PMS7003;28141;51.120;17.114;2023-04-24T13:31:42;12;5;4
42510;PMS7003;28141;51.120;17.114;2023-04-24T13:34:56;13;5;3
42510;PMS7003;28141;51.120;17.114;2023-04-24T13:38:11;12;6;5
42510;PMS7003;28141;51.120;17.114;2023-04-24T13:41:25;12;5;4
42510;PMS7003;28141;51.120;17.114;2023-04-24T13:45:05;11;4;3
42510;PMS7003;28141;51.120;17.114;2023-04-24T13:48:20;12;5;3
42510;PMS7003;28141;51.120;17.114;2023-04-24T13:51:34;10;3;2
42510;PMS7003;28141;51.120;17.114;2023-04-24T13:54:48;11;4;2
42510;PMS7003;28141;51.120;17.114;2023-04-24T13:58:28;10;4;2
42510;PMS7003;28141;51.120;17.114;2023-04-24T14:01:43;9;2;1
42510;PMS7003;28141;51.120;17.114;2023-04-24T14:04:58;10;4;2
42510;PMS7003;28141;51.120;17.114;2023-04-24T14:08:12;8;1;0
42510;PMS7003;28141;51.120;17.114;2023-04-24T14:11:52;9;3;1
42510;PMS7003;28141;51.120;17.114;2023-04-24T14:15:07;8;1;1
42510;PMS7003;28141;51.120;17.114;2023-04-24T14:18:22;9;2;2
42510;PMS7003;28141;51.120;17.114;2023-04-24T14:21:36;10;3;1
42510;PMS7003;28141;51.120;17.114;2023-04-24T14:25:17;8;2;1
42510;PMS7003;28141;51.120;17.114;2023-04-24T14:28:30;8;1;1
42510;PMS7003;28141;51.120;17.114;2023-04-24T14:31:45;9;2;1
42510;PMS7003;28141;51.120;17.114;2023-04-24T14:34:59;7;1;0
42510;PMS7003;28141;51.120;17.114;2023-04-24T14:38:39;9;2;0
42510;PMS7003;28141;51.120;17.114;2023-04-24T14:41:53;8;1;1
42510;PMS7003;28141;51.120;17.114;2023-04-24T14:45:08;7;1;0
42510;PMS7003;28141;51.120;17.114;2023-04-24T14:48:23;7;0;0
42510;PMS7003;28141;51.120;17.114;2023-04-24T14:52:03;8;0;0
42510;PMS7003;28141;51.120;17.114;2023-04-24T14:55:17;8;1;0
42510;PMS7003;28141;51.120;17.114;2023-04-24T14:58:31;8;1;1
42510;PMS7003;28141;51.120;17.114;2023-04-24T15:01:45;8;1;0
42510;PMS7003;28141;51.120;17.114;2023-04-24T15:05:24;7;1;1
42510;PMS7003;28141;51.120;17.114;2023-04-24T15:08:38;8;1;1
42510;PMS7003;28141;51.120;17.114;2023-04-24T15:11:52;8;1;1
42510;PMS7003;28141;51.120;17.114;2023-04-24T15:15:07;8;2;0
42510;PMS7003;28141;51.120;17.114;2023-04-24T15:18:48;8;1;0
42510;PMS7003;28141;51.120;17.114;2023-04-24T15:22:02;8;1;1
42510;PMS7003;28141;51.120;17.114;2023-04-24T15:25:16;8;2;1
42510;PMS7003;28141;51.120;17.114;2023-04-24T15:28:30;9;2;1
42510;PMS7003;28141;51.120;17.114;2023-04-24T15:32:10;9;2;1
42510;PMS7003;28141;51.120;17.114;2023-04-24T15:35:24;8;1;1
42510;PMS7003;28141;51.120;17.114;2023-04-24T15:38:38;9;1;1
42510;PMS7003;28141;51.120;17.114;2023-04-24T15:41:52;8;1;1
42510;PMS7003;28141;51.120;17.114;2023-04-24T15:45:32;7;1;1
42510;PMS7003;28141;51.120;17.114;2023-04-24T15:48:47;8;1;0
42510;PMS7003;28141;51.120;17.114;2023-04-24T15:52:00;9;1;1
42510;PMS7003;28141;51.120;17.114;2023-04-24T15:55:15;9;3;2
42510;PMS7003;28141;51.120;17.114;2023-04-24T15:58:55;8;1;0
42510;PMS7003;28141;51.120;17.114;2023-04-24T16:02:11;8;1;1
42510;PMS7003;28141;51.120;17.114;2023-04-24T16:05:32;9;2;1
42510;PMS7003;28141;51.120;17.114;2023-04-24T16:08:46;9;2;1
42510;PMS7003;28141;51.120;17.114;2023-04-24T16:12:27;8;2;1
42510;PMS7003;28141;51.120;17.114;2023-04-24T16:15:41;7;1;1
42510;PMS7003;28141;51.120;17.114;2023-04-24T16:18:55;8;2;0
42510;PMS7003;28141;51.120;17.114;2023-04-24T16:22:09;8;1;1
42510;PMS7003;28141;51.120;17.114;2023-04-24T16:25:49;8;1;1
42510;PMS7003;28141;51.120;17.114;2023-04-24T16:29:03;8;1;1
42510;PMS7003;28141;51.120;17.114;2023-04-24T16:32:17;8;1;1
42510;PMS7003;28141;51.120;17.114;2023-04-24T16:35:31;9;2;1
42510;PMS7003;28141;51.120;17.114;2023-04-24T16:39:11;7;1;0
42510;PMS7003;28141;51.120;17.114;2023-04-24T16:42:25;7;1;0
42510;PMS7003;28141;51.120;17.114;2023-04-24T16:45:39;8;1;0
42510;PMS7003;28141;51.120;17.114;2023-04-24T16:48:53;8;1;0
42510;PMS7003;28141;51.120;17.114;2023-04-24T16:52:10;8;2;1
42510;PMS7003;28141;51.120;17.114;2023-04-24T16:55:50;9;2;1
42510;PMS7003;28141;51.120;17.114;2023-04-24T16:59:04;9;1;0
42510;PMS7003;28141;51.120;17.114;2023-04-24T17:02:19;8;1;1
42510;PMS7003;28141;51.120;17.114;2023-04-24T17:05:33;8;1;1
42510;PMS7003;28141;51.120;17.114;2023-04-24T17:09:14;7;1;1
42510;PMS7003;28141;51.120;17.114;2023-04-24T17:12:29;9;2;1
42510;PMS7003;28141;51.120;17.114;2023-04-24T17:15:42;8;1;1
42510;PMS7003;28141;51.120;17.114;2023-04-24T17:18:57;8;1;0
42510;PMS7003;28141;51.120;17.114;2023-04-24T17:22:37;8;1;1
42510;PMS7003;28141;51.120;17.114;2023-04-24T17:25:51;8;1;1
42510;PMS7003;28141;51.120;17.114;2023-04-24T17:29:05;7;1;1
42510;PMS7003;28141;51.120;17.114;2023-04-24T17:32:18;7;1;0
42510;PMS7003;28141;51.120;17.114;2023-04-24T17:35:59;8;1;1
42510;PMS7003;28141;51.120;17.114;2023-04-24T17:39:14;9;2;1
42510;PMS7003;28141;51.120;17.114;2023-04-24T17:42:28;8;1;1
42510;PMS7003;28141;51.120;17.114;2023-04-24T17:45:44;8;1;1
42510;PMS7003;28141;51.120;17.114;2023-04-24T17:49:25;8;1;1
42510;PMS7003;28141;51.120;17.114;2023-04-24T17:52:39;8;1;0
42510;PMS7003;28141;51.120;17.114;2023-04-24T17:55:53;8;1;1
42510;PMS7003;28141;51.120;17.114;2023-04-24T17:59:13;7;1;1
42510;PMS7003;28141;51.120;17.114;2023-04-24T18:02:55;7;1;0
42510;PMS7003;28141;51.120;17.114;2023-04-24T18:06:13;8;2;1
42510;PMS7003;28141;51.120;17.114;2023-04-24T18:09:30;8;1;0
42510;PMS7003;28141;51.120;17.114;2023-04-24T18:12:45;8;1;0
42510;PMS7003;28141;51.120;17.114;2023-04-24T18:16:26;8;1;0
42510;PMS7003;28141;51.120;17.114;2023-04-24T18:19:40;9;2;1
42510;PMS7003;28141;51.120;17.114;2023-04-24T18:22:54;9;2;1
42510;PMS7003;28141;51.120;17.114;2023-04-24T18:26:08;9;2;1
42510;PMS7003;28141;51.120;17.114;2023-04-24T18:29:49;9;1;1
42510;PMS7003;28141;51.120;17.114;2023-04-24T18:33:04;8;2;1
42510;PMS7003;28141;51.120;17.114;2023-04-24T18:36:18;9;3;1
42510;PMS7003;28141;51.120;17.114;2023-04-24T18:39:32;8;1;1
42510;PMS7003;28141;51.120;17.114;2023-04-24T18:43:14;7;1;0
42510;PMS7003;28141;51.120;17.114;2023-04-24T18:46:29;8;1;1
42510;PMS7003;28141;51.120;17.114;2023-04-24T18:49:50;8;1;0
42510;PMS7003;28141;51.120;17.114;2023-04-24T18:53:04;9;2;1
42510;PMS7003;28141;51.120;17.114;2023-04-24T18:56:44;9;1;1
42510;PMS7003;28141;51.120;17.114;2023-04-24T18:59:58;7;1;1
42510;PMS7003;28141;51.120;17.114;2023-04-24T19:03:12;8;1;1
42510;PMS7003;28141;51.120;17.114;2023-04-24T19:06:26;8;2;1
42510;PMS7003;28141;51.120;17.114;2023-04-24T19:10:06;7;0;0
42510;PMS7003;28141;51.120;17.114;2023-04-24T19:13:21;7;1;1
42510;PMS7003;28141;51.120;17.114;2023-04-24T19:16:35;9;2;0
42510;PMS7003;28141;51.120;17.114;2023-04-24T19:19:49;9;2;0
42510;PMS7003;28141;51.120;17.114;2023-04-24T19:23:30;8;1;1
42510;PMS7003;28141;51.120;17.114;2023-04-24T19:26:51;8;1;1
42510;PMS7003;28141;51.120;17.114;2023-04-24T19:30:05;9;2;1
42510;PMS7003;28141;51.120;17.114;2023-04-24T19:33:20;8;2;1
42510;PMS7003;28141;51.120;17.114;2023-04-24T19:37:00;8;1;1
42510;PMS7003;28141;51.120;17.114;2023-04-24T19:40:14;8;2;0
42510;PMS7003;28141;51.120;17.114;2023-04-24T19:43:28;9;2;1
42510;PMS7003;28141;51.120;17.114;2023-04-24T19:46:42;9;2;0
42510;PMS7003;28141;51.120;17.114;2023-04-24T19:50:22;8;2;1
42510;PMS7003;28141;51.120;17.114;2023-04-24T19:53:36;11;2;1
42510;PMS7003;28141;51.120;17.114;2023-04-24T19:56:50;8;1;1
42510;PMS7003;28141;51.120;17.114;2023-04-24T20:00:05;8;2;1
42510;PMS7003;28141;51.120;17.114;2023-04-24T20:03:46;9;3;1
42510;PMS7003;28141;51.120;17.114;2023-04-24T20:07:00;10;2;1
42510;PMS7003;28141;51.120;17.114;2023-04-24T20:10:14;8;2;1
42510;PMS7003;28141;51.120;17.114;2023-04-24T20:13:28;9;2;1
42510;PMS7003;28141;51.120;17.114;2023-04-24T20:17:11;8;1;0
42510;PMS7003;28141;51.120;17.114;2023-04-24T20:20:25;8;1;1
42510;PMS7003;28141;51.120;17.114;2023-04-24T20:23:39;9;2;1
42510;PMS7003;28141;51.120;17.114;2023-04-24T20:26:53;8;2;1
42510;PMS7003;28141;51.120;17.114;2023-04-24T20:30:35;9;2;2
42510;PMS7003;28141;51.120;17.114;2023-04-24T20:33:50;10;3;2
42510;PMS7003;28141;51.120;17.114;2023-04-24T20:37:04;9;2;1
42510;PMS7003;28141;51.120;17.114;2023-04-24T20:40:18;9;2;1
42510;PMS7003;28141;51.120;17.114;2023-04-24T20:43:58;7;1;1
42510;PMS7003;28141;51.120;17.114;2023-04-24T20:47:13;11;3;1
42510;PMS7003;28141;51.120;17.114;2023-04-24T20:50:28;10;3;2
42510;PMS7003;28141;51.120;17.114;2023-04-24T20:53:44;8;2;1
42510;PMS7003;28141;51.120;17.114;2023-04-24T20:57:27;10;3;2
42510;PMS7003;28141;51.120;17.114;2023-04-24T21:00:41;9;2;1
42510;PMS7003;28141;51.120;17.114;2023-04-24T21:03:55;8;1;1
42510;PMS7003;28141;51.120;17.114;2023-04-24T21:07:09;9;2;1
42510;PMS7003;28141;51.120;17.114;2023-04-24T21:10:52;8;2;2
42510;PMS7003;28141;51.120;17.114;2023-04-24T21:14:06;9;2;1
42510;PMS7003;28141;51.120;17.114;2023-04-24T21:17:20;10;3;2
42510;PMS7003;28141;51.120;17.114;2023-04-24T21:20:34;11;3;1
42510;PMS7003;28141;51.120;17.114;2023-04-24T21:24:14;9;3;1
42510;PMS7003;28141;51.120;17.114;2023-04-24T21:27:28;10;3;2
42510;PMS7003;28141;51.120;17.114;2023-04-24T21:30:43;9;2;2
42510;PMS7003;28141;51.120;17.114;2023-04-24T21:33:57;10;3;2
42510;PMS7003;28141;51.120;17.114;2023-04-24T21:37:37;10;3;2
42510;PMS7003;28141;51.120;17.114;2023-04-24T21:40:52;9;2;1
42510;PMS7003;28141;51.120;17.114;2023-04-24T21:44:06;13;4;2
42510;PMS7003;28141;51.120;17.114;2023-04-24T21:47:20;11;4;2
42510;PMS7003;28141;51.120;17.114;2023-04-24T21:50:33;10;3;2
42510;PMS7003;28141;51.120;17.114;2023-04-24T21:54:14;9;3;2
42510;PMS7003;28141;51.120;17.114;2023-04-24T21:57:28;9;3;2
42510;PMS7003;28141;51.120;17.114;2023-04-24T22:00:42;9;2;2
42510;PMS7003;28141;51.120;17.114;2023-04-24T22:03:56;9;3;2
42510;PMS7003;28141;51.120;17.114;2023-04-24T22:07:37;8;2;1
42510;PMS7003;28141;51.120;17.114;2023-04-24T22:10:50;10;3;2
42510;PMS7003;28141;51.120;17.114;2023-04-24T22:14:06;9;3;2
42510;PMS7003;28141;51.120;17.114;2023-04-24T22:17:20;9;2;1